createdAt,value
2024-01-26T00:00:53.570Z,84.90
2024-01-26T00:03:20.304Z,84.80
2024-01-26T00:05:46.940Z,84.80
2024-01-26T00:08:13.460Z,84.80
2024-01-26T00:10:40.013Z,85.00
2024-01-26T00:13:06.580Z,85.00
2024-01-26T00:15:33.154Z,84.80
2024-01-26T00:17:59.736Z,85.50
2024-01-26T00:20:27.428Z,85.50
2024-01-26T00:22:54.639Z,85.40
2024-01-26T00:25:21.270Z,85.40
2024-01-26T00:27:47.837Z,86.10
2024-01-26T00:30:14.403Z,85.70
2024-01-26T00:35:25.127Z,85.20
2024-01-26T00:37:51.649Z,85.50
2024-01-26T00:40:18.166Z,85.70
2024-01-26T00:42:49.269Z,85.70
2024-01-26T00:45:15.815Z,85.90
2024-01-26T00:47:42.414Z,85.70
2024-01-26T00:50:13.269Z,85.70
2024-01-26T00:52:39.887Z,86.00
2024-01-26T00:55:06.459Z,86.20
2024-01-26T00:57:33.033Z,86.30
2024-01-26T00:59:59.586Z,86.30
2024-01-26T01:02:26.135Z,86.60
2024-01-26T01:04:52.747Z,86.50
2024-01-26T01:07:19.303Z,86.60
2024-01-26T01:09:45.825Z,86.70
2024-01-26T01:12:12.406Z,86.90
2024-01-26T01:14:38.991Z,86.80
2024-01-26T01:17:05.539Z,86.90
2024-01-26T01:19:32.132Z,87.10
2024-01-26T01:21:58.710Z,86.90
2024-01-26T01:24:25.259Z,86.90
2024-01-26T01:26:51.819Z,86.80
2024-01-26T01:29:18.366Z,87.20
2024-01-26T01:31:44.930Z,87.10
2024-01-26T01:34:13.387Z,87.00
2024-01-26T01:36:40.074Z,86.90
2024-01-26T01:39:06.645Z,87.00
2024-01-26T01:41:34.326Z,87.00
2024-01-26T01:44:00.873Z,86.90
2024-01-26T01:46:27.454Z,86.90
2024-01-26T01:48:54.144Z,87.00
2024-01-26T01:51:20.781Z,87.10
2024-01-26T01:53:47.321Z,87.40
2024-01-26T01:56:13.887Z,87.50
2024-01-26T01:58:40.404Z,87.50
2024-01-26T02:01:07.009Z,87.50
2024-01-26T02:03:33.624Z,87.50
2024-01-26T02:06:01.234Z,87.80
2024-01-26T02:08:27.870Z,88.00
2024-01-26T02:10:54.415Z,88.00
2024-01-26T02:13:20.934Z,88.20
2024-01-26T02:15:47.474Z,88.00
2024-01-26T02:18:14.084Z,87.90
2024-01-26T02:20:47.687Z,87.90
2024-01-26T02:23:19.002Z,87.90
2024-01-26T02:25:45.544Z,88.20
2024-01-26T02:28:12.068Z,88.20
2024-01-26T02:30:38.618Z,88.10
2024-01-26T02:33:07.215Z,88.20
2024-01-26T02:35:33.878Z,88.30
2024-01-26T02:38:00.454Z,88.40
2024-01-26T02:40:26.974Z,88.40
2024-01-26T02:42:53.502Z,88.50
2024-01-26T02:45:20.031Z,88.30
2024-01-26T02:47:46.656Z,88.50
2024-01-26T02:50:13.261Z,88.70
2024-01-26T02:52:39.797Z,88.50
2024-01-26T02:55:06.325Z,88.50
2024-01-26T02:57:32.865Z,88.40
2024-01-26T02:59:59.542Z,88.50
2024-01-26T03:02:26.115Z,88.40
2024-01-26T03:04:52.655Z,88.60
2024-01-26T03:07:19.239Z,88.80
2024-01-26T03:09:45.814Z,88.60
2024-01-26T03:12:12.478Z,88.60
2024-01-26T03:14:39.180Z,88.70
2024-01-26T03:17:05.770Z,88.50
2024-01-26T03:19:32.323Z,88.50
2024-01-26T03:21:58.886Z,88.70
2024-01-26T03:24:25.407Z,88.80
2024-01-26T03:26:52.050Z,88.90
2024-01-26T03:29:18.596Z,89.10
2024-01-26T03:31:45.169Z,89.10
2024-01-26T03:34:11.802Z,89.10
2024-01-26T03:36:38.403Z,89.00
2024-01-26T03:39:05.049Z,89.00
2024-01-26T03:41:31.701Z,89.00
2024-01-26T03:43:58.260Z,89.00
2024-01-26T03:46:24.827Z,89.00
2024-01-26T03:48:51.637Z,89.10
2024-01-26T03:51:18.312Z,89.20
2024-01-26T03:53:44.958Z,89.20
2024-01-26T03:56:11.558Z,89.10
2024-01-26T03:58:38.079Z,89.00
2024-01-26T04:01:04.623Z,89.40
2024-01-26T04:03:31.272Z,89.40
2024-01-26T04:05:57.929Z,89.50
2024-01-26T04:08:24.480Z,89.40
2024-01-26T04:10:51.070Z,89.50
2024-01-26T04:13:17.649Z,89.50
2024-01-26T04:15:44.250Z,89.50
2024-01-26T04:18:10.879Z,89.60
2024-01-26T04:20:37.526Z,89.60
2024-01-26T04:23:04.054Z,89.50
2024-01-26T04:25:30.575Z,89.60
2024-01-26T04:28:07.470Z,89.80
2024-01-26T04:30:34.022Z,89.90
2024-01-26T04:33:00.724Z,89.90
2024-01-26T04:35:27.348Z,89.70
2024-01-26T04:37:53.862Z,89.70
2024-01-26T04:40:20.398Z,89.80
2024-01-26T04:42:46.927Z,89.80
2024-01-26T04:45:13.608Z,90.00
2024-01-26T04:47:40.296Z,90.00
2024-01-26T04:50:06.896Z,89.90
2024-01-26T04:52:33.422Z,89.80
2024-01-26T04:55:00.002Z,89.80
2024-01-26T04:57:26.516Z,89.90
2024-01-26T04:59:53.079Z,90.00
2024-01-26T05:02:19.624Z,89.90
2024-01-26T05:04:46.159Z,90.00
2024-01-26T05:07:12.894Z,90.20
2024-01-26T05:09:46.017Z,90.00
2024-01-26T05:12:13.473Z,90.00
2024-01-26T05:14:40.126Z,90.10
2024-01-26T05:17:06.675Z,90.00
2024-01-26T05:19:33.244Z,90.10
2024-01-26T05:21:59.832Z,90.10
2024-01-26T05:24:26.389Z,90.20
2024-01-26T05:26:55.282Z,90.10
2024-01-26T05:29:23.874Z,90.20
2024-01-26T05:31:51.851Z,90.20
2024-01-26T05:34:18.743Z,90.30
2024-01-26T05:36:45.504Z,90.20
2024-01-26T05:39:12.152Z,90.30
2024-01-26T05:41:38.828Z,90.20
2024-01-26T05:44:05.378Z,90.20
2024-01-26T05:46:31.909Z,90.20
2024-01-26T05:48:58.616Z,90.20
2024-01-26T05:51:25.250Z,90.20
2024-01-26T05:53:51.813Z,90.30
2024-01-26T05:56:18.378Z,90.30
2024-01-26T05:58:44.895Z,90.30
2024-01-26T06:01:11.446Z,90.30
2024-01-26T06:03:38.066Z,90.30
2024-01-26T06:06:04.723Z,90.40
2024-01-26T06:08:31.398Z,90.40
2024-01-26T06:11:01.559Z,90.40
2024-01-26T06:13:28.092Z,90.30
2024-01-26T06:15:54.622Z,90.30
2024-01-26T06:18:21.310Z,90.40
2024-01-26T06:20:48.113Z,90.40
2024-01-26T06:23:14.724Z,90.40
2024-01-26T06:25:41.266Z,90.20
2024-01-26T06:28:07.821Z,90.20
2024-01-26T06:30:34.364Z,90.10
2024-01-26T06:33:01.134Z,90.10
2024-01-26T06:35:27.817Z,90.00
2024-01-26T06:37:54.344Z,90.00
2024-01-26T06:40:20.899Z,90.20
2024-01-26T06:42:47.431Z,90.20
2024-01-26T06:45:14.158Z,90.20
2024-01-26T06:47:41.086Z,90.30
2024-01-26T06:50:10.158Z,90.20
2024-01-26T06:52:38.201Z,90.20
2024-01-26T06:55:04.772Z,90.10
2024-01-26T06:57:31.297Z,90.20
2024-01-26T06:59:57.874Z,90.20
2024-01-26T07:02:24.402Z,90.30
2024-01-26T07:04:50.954Z,90.30
2024-01-26T07:07:17.474Z,90.20
2024-01-26T07:09:44.019Z,90.30
2024-01-26T07:12:10.651Z,90.30
2024-01-26T07:14:37.284Z,90.30
2024-01-26T07:17:03.843Z,90.30
2024-01-26T07:19:30.574Z,90.30
2024-01-26T07:21:57.247Z,90.30
2024-01-26T07:24:23.859Z,90.30
2024-01-26T07:26:50.474Z,90.20
2024-01-26T07:29:17.032Z,90.40
2024-01-26T07:31:43.549Z,90.40
2024-01-26T07:34:10.286Z,90.30
2024-01-26T07:36:36.951Z,90.30
2024-01-26T07:39:03.554Z,90.30
2024-01-26T07:41:30.108Z,90.30
2024-01-26T07:43:56.637Z,90.40
2024-01-26T07:46:23.165Z,90.30
2024-01-26T07:48:49.805Z,90.40
2024-01-26T07:51:16.475Z,90.50
2024-01-26T07:53:43.057Z,90.40
2024-01-26T07:56:09.596Z,90.40
2024-01-26T07:58:36.143Z,90.40
2024-01-26T08:01:02.870Z,90.40
2024-01-26T08:03:29.553Z,90.50
2024-01-26T08:05:56.533Z,90.60
2024-01-26T08:08:23.340Z,90.70
2024-01-26T08:10:49.895Z,90.70
2024-01-26T08:13:16.455Z,90.50
2024-01-26T08:15:43.498Z,90.50
2024-01-26T08:18:10.243Z,90.60
2024-01-26T08:20:37.084Z,90.70
2024-01-26T08:23:03.753Z,90.60
2024-01-26T08:25:30.415Z,90.70
2024-01-26T08:27:57.067Z,90.70
2024-01-26T08:30:23.775Z,90.80
2024-01-26T08:32:50.548Z,90.80
2024-01-26T08:35:17.394Z,90.70
2024-01-26T08:37:44.080Z,90.70
2024-01-26T08:40:10.938Z,90.80
2024-01-26T08:42:37.581Z,90.80
2024-01-26T08:45:04.184Z,90.80
2024-01-26T08:47:30.814Z,90.80
2024-01-26T08:49:57.385Z,90.80
2024-01-26T08:52:23.915Z,90.80
2024-01-26T08:54:50.446Z,90.80
2024-01-26T08:57:17.123Z,90.90
2024-01-26T08:59:43.884Z,90.80
2024-01-26T09:02:10.481Z,90.90
2024-01-26T09:04:37.018Z,90.90
2024-01-26T09:07:10.095Z,90.90
2024-01-26T09:09:37.654Z,91.00
2024-01-26T09:12:04.216Z,91.00
2024-01-26T09:14:30.762Z,91.00
2024-01-26T09:16:57.310Z,91.00
2024-01-26T09:19:24.101Z,91.10
2024-01-26T09:21:50.721Z,91.10
2024-01-26T09:24:19.724Z,91.10
2024-01-26T09:26:46.500Z,91.20
2024-01-26T09:29:13.045Z,91.10
2024-01-26T09:31:39.579Z,91.10
2024-01-26T09:34:06.242Z,91.00
2024-01-26T09:36:32.983Z,91.00
2024-01-26T09:38:59.543Z,91.10
2024-01-26T09:41:26.080Z,91.10
2024-01-26T09:43:52.611Z,91.10
2024-01-26T09:46:19.604Z,91.10
2024-01-26T09:48:46.256Z,91.00
2024-01-26T09:51:13.007Z,91.10
2024-01-26T09:53:39.589Z,91.10
2024-01-26T09:56:06.116Z,91.00
2024-01-26T09:58:32.674Z,91.10
2024-01-26T10:00:59.246Z,91.00
2024-01-26T10:03:25.881Z,91.10
2024-01-26T10:05:52.570Z,91.00
2024-01-26T10:08:19.147Z,91.10
2024-01-26T10:10:45.703Z,91.10
2024-01-26T10:13:12.221Z,91.10
2024-01-26T10:15:38.774Z,91.10
2024-01-26T10:18:06.109Z,91.20
2024-01-26T10:20:32.779Z,91.10
2024-01-26T10:22:59.445Z,91.20
2024-01-26T10:25:26.124Z,91.10
2024-01-26T10:27:53.163Z,91.40
2024-01-26T10:30:20.230Z,91.10
2024-01-26T10:32:47.710Z,91.10
2024-01-26T10:35:14.967Z,91.10
2024-01-26T10:37:41.560Z,91.10
2024-01-26T10:40:08.156Z,91.10
2024-01-26T10:42:34.976Z,91.10
2024-01-26T10:45:01.601Z,91.20
2024-01-26T10:47:28.251Z,91.20
2024-01-26T10:49:54.865Z,91.10
2024-01-26T10:52:23.507Z,91.20
2024-01-26T10:54:51.696Z,91.20
2024-01-26T10:57:18.258Z,91.30
2024-01-26T10:59:44.889Z,91.30
2024-01-26T11:02:11.426Z,91.40
2024-01-26T11:04:37.972Z,91.50
2024-01-26T11:07:04.605Z,91.60
2024-01-26T11:09:31.220Z,91.70
2024-01-26T11:11:57.756Z,91.80
2024-01-26T11:14:24.304Z,91.80
2024-01-26T11:16:50.819Z,91.60
2024-01-26T11:19:17.444Z,91.70
2024-01-26T11:21:44.004Z,91.80
2024-01-26T11:24:10.628Z,91.90
2024-01-26T11:26:37.224Z,91.90
2024-01-26T11:29:03.784Z,91.90
2024-01-26T11:31:30.411Z,91.90
2024-01-26T11:33:57.050Z,92.20
2024-01-26T11:36:23.734Z,92.50
2024-01-26T11:38:50.359Z,92.50
2024-01-26T11:41:16.926Z,92.40
2024-01-26T11:43:43.461Z,93.00
2024-01-26T11:46:10.054Z,92.70
2024-01-26T11:48:36.893Z,92.70
2024-01-26T11:51:03.567Z,92.50
2024-01-26T11:53:30.170Z,92.50
2024-01-26T11:55:56.700Z,92.60
2024-01-26T11:58:23.392Z,92.20
2024-01-26T12:00:50.059Z,92.10
2024-01-26T12:03:16.977Z,91.90
2024-01-26T12:05:44.150Z,91.90
2024-01-26T12:08:11.051Z,92.00
2024-01-26T12:10:38.145Z,91.60
2024-01-26T12:13:04.973Z,91.40
2024-01-26T12:15:31.578Z,91.70
2024-01-26T12:17:58.282Z,91.60
2024-01-26T12:20:24.849Z,91.40
2024-01-26T12:22:51.389Z,91.50
2024-01-26T12:25:17.921Z,91.20
2024-01-26T12:27:44.464Z,90.90
2024-01-26T12:30:11.035Z,90.60
2024-01-26T12:32:37.738Z,90.50
2024-01-26T12:35:04.458Z,90.70
2024-01-26T12:37:31.065Z,90.40
2024-01-26T12:39:57.580Z,90.50
2024-01-26T12:42:24.133Z,89.50
2024-01-26T12:44:50.671Z,90.10
2024-01-26T12:47:17.239Z,90.00
2024-01-26T12:49:43.814Z,89.40
2024-01-26T12:52:10.364Z,88.20
2024-01-26T12:54:36.889Z,88.40
2024-01-26T12:57:03.539Z,88.70
2024-01-26T12:59:30.101Z,87.80
2024-01-26T13:01:56.650Z,88.10
2024-01-26T13:04:23.281Z,88.20
2024-01-26T13:06:49.992Z,88.50
2024-01-26T13:09:16.816Z,88.30
2024-01-26T13:11:43.612Z,87.90
2024-01-26T13:14:10.138Z,87.20
2024-01-26T13:16:36.691Z,86.60
2024-01-26T13:19:03.423Z,86.50
2024-01-26T13:21:30.482Z,86.60
2024-01-26T13:23:57.355Z,86.10
2024-01-26T13:26:23.902Z,85.80
2024-01-26T13:28:50.426Z,86.40
2024-01-26T13:31:17.237Z,85.50
2024-01-26T13:33:44.177Z,85.80
2024-01-26T13:36:10.828Z,85.40
2024-01-26T13:38:37.411Z,85.80
2024-01-26T13:41:03.975Z,84.60
2024-01-26T13:43:30.498Z,84.70
2024-01-26T13:45:57.048Z,85.00
2024-01-26T13:48:23.774Z,84.40
2024-01-26T13:50:50.473Z,84.40
2024-01-26T13:53:17.034Z,83.70
2024-01-26T13:55:43.559Z,84.20
2024-01-26T13:58:10.085Z,82.90
2024-01-26T14:00:36.674Z,83.30
2024-01-26T14:03:03.340Z,83.00
2024-01-26T14:05:29.916Z,83.90
2024-01-26T14:07:56.468Z,83.30
2024-01-26T14:10:23.004Z,83.30
2024-01-26T14:12:49.545Z,83.20
2024-01-26T14:15:16.554Z,82.40
2024-01-26T14:17:43.469Z,83.50
2024-01-26T14:20:10.309Z,82.30
2024-01-26T14:22:36.946Z,82.50
2024-01-26T14:25:03.478Z,82.60
2024-01-26T14:27:30.016Z,82.00
2024-01-26T14:29:56.572Z,82.50
2024-01-26T14:32:23.173Z,82.50
2024-01-26T14:34:49.768Z,82.60
2024-01-26T14:37:16.335Z,82.40
2024-01-26T14:39:42.868Z,82.70
2024-01-26T14:42:09.500Z,82.90
2024-01-26T14:44:36.220Z,81.70
2024-01-26T14:47:02.824Z,82.00
2024-01-26T14:49:30.330Z,82.00
2024-01-26T14:51:57.885Z,82.50
2024-01-26T14:54:24.571Z,81.40
2024-01-26T14:56:51.213Z,81.30
2024-01-26T14:59:17.766Z,81.60
2024-01-26T15:01:44.301Z,82.20
2024-01-26T15:04:10.890Z,81.70
2024-01-26T15:06:37.595Z,81.90
2024-01-26T15:09:04.173Z,82.10
2024-01-26T15:11:30.745Z,81.70
2024-01-26T15:13:57.280Z,82.20
2024-01-26T15:16:23.807Z,81.80
2024-01-26T15:18:50.550Z,81.90
2024-01-26T15:21:17.259Z,81.50
2024-01-26T15:23:43.868Z,81.50
2024-01-26T15:26:10.436Z,81.30
2024-01-26T15:28:36.982Z,81.50
2024-01-26T15:31:03.538Z,81.80
2024-01-26T15:33:30.257Z,81.40
2024-01-26T15:35:56.837Z,81.80
2024-01-26T15:38:23.404Z,82.10
2024-01-26T15:40:49.927Z,81.30
2024-01-26T15:43:16.492Z,81.50
2024-01-26T15:45:43.032Z,81.40
2024-01-26T15:48:09.804Z,81.80
2024-01-26T15:50:36.485Z,81.20
2024-01-26T15:53:03.012Z,81.40
2024-01-26T15:55:29.553Z,81.20
2024-01-26T15:57:56.077Z,81.40
2024-01-26T16:00:22.671Z,80.60
2024-01-26T16:02:49.256Z,80.50
2024-01-26T16:05:15.894Z,81.10
2024-01-26T16:07:42.754Z,80.60
2024-01-26T16:10:09.306Z,80.70
2024-01-26T16:12:37.685Z,80.60
2024-01-26T16:15:04.532Z,80.90
2024-01-26T16:17:31.119Z,80.70
2024-01-26T16:19:57.732Z,80.80
2024-01-26T16:22:24.355Z,80.60
2024-01-26T16:24:50.889Z,81.00
2024-01-26T16:27:17.518Z,81.20
2024-01-26T16:29:44.103Z,81.80
2024-01-26T16:32:10.661Z,80.70
2024-01-26T16:34:37.205Z,81.00
2024-01-26T16:37:03.758Z,80.90
2024-01-26T16:39:30.871Z,80.80
2024-01-26T16:41:57.562Z,80.60
2024-01-26T16:44:24.137Z,80.70
2024-01-26T16:46:50.679Z,81.10
2024-01-26T16:49:17.436Z,80.40
2024-01-26T16:51:44.064Z,80.60
2024-01-26T16:54:10.629Z,80.60
2024-01-26T16:56:37.173Z,80.60
2024-01-26T16:59:03.709Z,80.70
2024-01-26T17:01:34.360Z,80.90
2024-01-26T17:04:01.624Z,81.00
2024-01-26T17:06:28.520Z,80.80
2024-01-26T17:08:55.223Z,81.00
2024-01-26T17:11:21.791Z,80.60
2024-01-26T17:13:48.313Z,80.60
2024-01-26T17:16:14.844Z,81.00
2024-01-26T17:18:41.624Z,80.80
2024-01-26T17:21:08.470Z,80.50
2024-01-26T17:23:35.148Z,80.80
2024-01-26T17:26:01.682Z,80.60
2024-01-26T17:28:28.199Z,80.80
2024-01-26T17:30:54.746Z,80.40
2024-01-26T17:33:21.717Z,80.30
2024-01-26T17:35:48.399Z,80.70
2024-01-26T17:38:15.008Z,80.90
2024-01-26T17:40:41.551Z,80.20
2024-01-26T17:43:08.082Z,81.00
2024-01-26T17:45:34.654Z,80.90
2024-01-26T17:48:01.313Z,80.90
2024-01-26T17:50:27.926Z,80.50
2024-01-26T17:52:54.445Z,80.20
2024-01-26T17:55:20.962Z,80.50
2024-01-26T17:57:47.494Z,80.10
2024-01-26T18:00:14.049Z,78.90
2024-01-26T18:02:40.621Z,80.00
2024-01-26T18:05:07.243Z,80.50
2024-01-26T18:07:33.820Z,80.00
2024-01-26T18:10:00.367Z,80.00
2024-01-26T18:12:26.925Z,80.20
2024-01-26T18:14:53.638Z,80.20
2024-01-26T18:17:20.216Z,80.60
2024-01-26T18:19:46.994Z,80.80
2024-01-26T18:22:13.785Z,80.30
2024-01-26T18:24:40.359Z,80.20
2024-01-26T18:27:06.991Z,80.10
2024-01-26T18:29:33.615Z,79.90
2024-01-26T18:32:00.166Z,79.80
2024-01-26T18:34:26.899Z,80.10
2024-01-26T18:36:53.582Z,80.10
2024-01-26T18:39:20.247Z,80.10
2024-01-26T18:41:46.857Z,79.70
2024-01-26T18:44:13.805Z,80.30
2024-01-26T18:46:40.436Z,80.00
2024-01-26T18:49:07.125Z,79.50
2024-01-26T18:51:33.815Z,80.70
2024-01-26T18:54:00.534Z,79.90
2024-01-26T18:56:27.077Z,79.70
2024-01-26T18:58:53.744Z,79.80
2024-01-26T19:01:21.583Z,79.40
2024-01-26T19:03:48.655Z,79.50
2024-01-26T19:06:15.569Z,79.70
2024-01-26T19:08:42.527Z,79.50
2024-01-26T19:11:09.336Z,80.20
2024-01-26T19:13:35.923Z,79.90
2024-01-26T19:16:02.835Z,79.50
2024-01-26T19:18:29.818Z,79.50
2024-01-26T19:20:57.096Z,78.90
2024-01-26T19:23:23.811Z,79.40
2024-01-26T19:25:50.706Z,79.60
2024-01-26T19:28:17.280Z,79.00
2024-01-26T19:30:43.816Z,79.30
2024-01-26T19:33:10.504Z,79.60
2024-01-26T19:35:37.152Z,79.50
2024-01-26T19:38:03.708Z,78.90
2024-01-26T19:40:30.310Z,79.50
2024-01-26T19:42:56.833Z,79.40
2024-01-26T19:45:23.527Z,79.10
2024-01-26T19:47:50.310Z,79.40
2024-01-26T19:50:17.027Z,79.00
2024-01-26T19:52:43.615Z,79.10
2024-01-26T19:55:10.169Z,78.90
2024-01-26T19:57:36.704Z,78.70
2024-01-26T20:00:03.392Z,78.80
2024-01-26T20:02:29.941Z,78.80
2024-01-26T20:04:56.470Z,79.00
2024-01-26T20:07:23.113Z,79.00
2024-01-26T20:09:49.711Z,79.20
2024-01-26T20:12:21.369Z,79.40
2024-01-26T20:14:48.103Z,79.10
2024-01-26T20:17:14.669Z,79.60
2024-01-26T20:19:41.283Z,79.40
2024-01-26T20:22:07.861Z,79.10
2024-01-26T20:24:34.715Z,79.20
2024-01-26T20:27:01.300Z,79.60
2024-01-26T20:29:28.092Z,79.50
2024-01-26T20:31:54.724Z,79.20
2024-01-26T20:34:21.458Z,79.00
2024-01-26T20:36:48.149Z,79.00
2024-01-26T20:39:14.710Z,79.30
2024-01-26T20:41:41.282Z,79.20
2024-01-26T20:44:07.849Z,79.30
2024-01-26T20:46:34.390Z,79.30
2024-01-26T20:49:01.036Z,79.30
2024-01-26T20:51:27.796Z,79.50
2024-01-26T20:53:54.413Z,79.30
2024-01-26T20:56:20.975Z,79.50
2024-01-26T20:58:47.510Z,79.40
2024-01-26T21:01:14.059Z,79.80
2024-01-26T21:03:40.801Z,79.00
2024-01-26T21:06:07.441Z,79.00
2024-01-26T21:08:34.041Z,79.10
2024-01-26T21:11:00.586Z,78.90
2024-01-26T21:13:27.140Z,79.20
2024-01-26T21:15:53.679Z,79.30
2024-01-26T21:18:20.388Z,79.30
2024-01-26T21:20:47.162Z,79.30
2024-01-26T21:23:14.006Z,79.40
2024-01-26T21:25:40.524Z,79.30
2024-01-26T21:28:07.086Z,79.30
2024-01-26T21:30:33.664Z,79.00
2024-01-26T21:33:00.372Z,78.80
2024-01-26T21:35:28.191Z,78.70
2024-01-26T21:37:55.292Z,78.80
2024-01-26T21:40:21.865Z,79.20
2024-01-26T21:42:48.724Z,79.00
2024-01-26T21:45:15.539Z,78.70
2024-01-26T21:47:42.448Z,78.70
2024-01-26T21:50:10.672Z,78.80
2024-01-26T21:52:37.304Z,78.90
2024-01-26T21:55:04.046Z,78.50
2024-01-26T21:57:30.698Z,79.00
2024-01-26T21:59:57.259Z,78.80
2024-01-26T22:02:23.801Z,79.00
2024-01-26T22:04:50.407Z,78.90
2024-01-26T22:07:16.981Z,78.80
2024-01-26T22:09:43.608Z,79.00
2024-01-26T22:12:10.288Z,78.50
2024-01-26T22:14:36.846Z,78.80
2024-01-26T22:17:03.371Z,78.70
2024-01-26T22:19:29.958Z,78.50
2024-01-26T22:21:56.542Z,78.50
2024-01-26T22:24:23.449Z,78.50
2024-01-26T22:26:50.021Z,78.60
2024-01-26T22:29:16.570Z,78.50
2024-01-26T22:31:43.114Z,78.60
2024-01-26T22:34:09.746Z,78.50
2024-01-26T22:36:36.292Z,78.70
2024-01-26T22:39:02.865Z,78.70
2024-01-26T22:41:29.410Z,78.20
2024-01-26T22:43:55.955Z,78.60
2024-01-26T22:46:22.495Z,79.00
2024-01-26T22:48:49.167Z,78.10
2024-01-26T22:51:15.862Z,77.90
2024-01-26T22:53:42.493Z,77.70
2024-01-26T22:56:09.097Z,77.80
2024-01-26T22:58:35.690Z,77.60
2024-01-26T23:01:02.271Z,77.70
2024-01-26T23:03:29.006Z,77.90
2024-01-26T23:05:55.736Z,77.70
2024-01-26T23:08:22.315Z,78.00
2024-01-26T23:10:48.836Z,77.90
2024-01-26T23:13:15.399Z,78.20
2024-01-26T23:15:41.944Z,78.00
2024-01-26T23:18:08.611Z,77.90
2024-01-26T23:20:35.212Z,78.20
2024-01-26T23:23:01.750Z,78.00
2024-01-26T23:25:28.271Z,78.20
2024-01-26T23:27:54.803Z,78.40
2024-01-26T23:30:21.395Z,78.30
2024-01-26T23:32:48.030Z,78.20
2024-01-26T23:35:14.799Z,78.30
2024-01-26T23:37:41.417Z,78.10
2024-01-26T23:40:07.930Z,78.40
2024-01-26T23:42:34.456Z,78.10
2024-01-26T23:45:01.074Z,79.00
2024-01-26T23:47:27.760Z,78.10
2024-01-26T23:49:54.443Z,78.30
2024-01-26T23:52:21.015Z,78.20
2024-01-26T23:54:47.546Z,78.00
2024-01-26T23:57:14.143Z,78.20
2024-01-26T23:59:40.734Z,78.50
